createdAt,value
2022-12-03T00:01:13.826Z,2.56
2022-12-03T00:03:40.992Z,2.59
2022-12-03T00:06:08.068Z,2.67
2022-12-03T00:08:35.057Z,2.64
2022-12-03T00:11:01.880Z,2.71
2022-12-03T00:13:28.772Z,2.72
2022-12-03T00:15:55.682Z,2.79
2022-12-03T00:18:22.508Z,2.68
2022-12-03T00:20:49.384Z,2.72
2022-12-03T00:23:16.224Z,2.82
2022-12-03T00:25:43.149Z,2.74
2022-12-03T00:28:10.248Z,2.76
2022-12-03T00:30:37.137Z,2.85
2022-12-03T00:33:04.167Z,2.72
2022-12-03T00:35:31.067Z,2.86
2022-12-03T00:37:57.883Z,2.74
2022-12-03T00:40:24.811Z,2.71
2022-12-03T00:42:51.624Z,2.72
2022-12-03T00:45:18.475Z,2.72
2022-12-03T00:47:45.299Z,2.61
2022-12-03T00:50:12.352Z,2.63
2022-12-03T00:52:39.161Z,2.62
2022-12-03T00:55:06.418Z,2.60
2022-12-03T00:57:33.239Z,2.68
2022-12-03T01:00:00.163Z,2.64
2022-12-03T01:02:27.032Z,2.64
2022-12-03T01:04:57.380Z,2.66
2022-12-03T01:07:24.401Z,2.81
2022-12-03T01:09:51.336Z,2.82
2022-12-03T01:12:18.311Z,2.81
2022-12-03T01:14:45.190Z,2.87
2022-12-03T01:17:12.594Z,2.85
2022-12-03T01:19:46.511Z,2.74
2022-12-03T01:22:15.054Z,2.68
2022-12-03T01:24:41.950Z,2.68
2022-12-03T01:27:08.911Z,2.69
2022-12-03T01:29:35.807Z,2.67
2022-12-03T01:32:17.575Z,2.69
2022-12-03T01:34:48.803Z,2.72
2022-12-03T01:37:16.811Z,2.66
2022-12-03T01:39:43.842Z,2.74
2022-12-03T01:42:25.935Z,2.78
2022-12-03T01:44:56.838Z,2.67
2022-12-03T01:47:33.806Z,2.70
2022-12-03T01:50:05.671Z,2.54
2022-12-03T01:52:36.747Z,2.51
2022-12-03T01:55:07.406Z,2.59
2022-12-03T01:57:43.692Z,2.48
2022-12-03T02:00:20.000Z,2.58
2022-12-03T02:02:53.579Z,2.60
2022-12-03T02:05:23.608Z,2.66
2022-12-03T02:07:51.779Z,2.56
2022-12-03T02:10:23.424Z,2.55
2022-12-03T02:13:16.399Z,2.62
2022-12-03T02:15:43.349Z,2.70
2022-12-03T02:18:10.482Z,2.72
2022-12-03T02:20:46.570Z,2.79
2022-12-03T02:23:26.286Z,2.67
2022-12-03T02:25:53.184Z,2.77
2022-12-03T02:28:20.040Z,2.73
2022-12-03T02:30:46.907Z,2.79
2022-12-03T02:33:13.787Z,2.68
2022-12-03T02:35:40.881Z,2.69
2022-12-03T02:38:26.230Z,2.63
2022-12-03T02:40:56.852Z,2.50
2022-12-03T02:43:24.170Z,2.49
2022-12-03T02:45:54.587Z,2.46
2022-12-03T02:48:26.051Z,2.54
2022-12-03T02:50:59.755Z,2.65
2022-12-03T02:53:33.421Z,2.63
2022-12-03T02:56:02.699Z,2.58
2022-12-03T02:58:32.770Z,2.74
2022-12-03T03:01:01.371Z,2.70
2022-12-03T03:03:29.883Z,2.77
2022-12-03T03:26:20.078Z,2.14
2022-12-03T03:28:51.045Z,2.31
2022-12-03T03:31:23.034Z,2.38
2022-12-03T03:33:50.508Z,2.49
2022-12-03T03:36:17.888Z,2.62
2022-12-03T03:38:44.904Z,2.66
2022-12-03T03:41:13.939Z,2.69
2022-12-03T03:43:43.150Z,2.70
2022-12-03T03:46:11.257Z,2.70
2022-12-03T03:48:40.487Z,2.72
2022-12-03T03:51:09.051Z,2.68
2022-12-03T03:53:40.416Z,2.59
2022-12-03T03:56:08.551Z,2.63
2022-12-03T03:58:36.011Z,2.68
2022-12-03T04:01:02.902Z,2.74
2022-12-03T04:03:30.021Z,2.60
2022-12-03T04:05:56.896Z,2.64
2022-12-03T04:08:28.330Z,2.66
2022-12-03T04:11:13.930Z,2.72
2022-12-03T04:13:40.854Z,2.69
2022-12-03T04:16:08.012Z,2.71
2022-12-03T04:18:43.715Z,2.67
2022-12-03T04:21:34.576Z,2.62
2022-12-03T04:24:01.841Z,2.62
2022-12-03T04:26:47.749Z,2.55
2022-12-03T04:29:17.958Z,2.42
2022-12-03T04:32:03.597Z,2.43
2022-12-03T04:34:48.917Z,2.53
2022-12-03T04:37:15.910Z,2.48
2022-12-03T04:39:42.878Z,2.35
2022-12-03T04:42:09.747Z,2.42
2022-12-03T04:44:36.692Z,2.50
2022-12-03T04:47:13.495Z,2.46
2022-12-03T04:49:45.764Z,2.32
2022-12-03T04:52:14.676Z,2.27
2022-12-03T04:54:42.216Z,2.41
2022-12-03T04:57:10.212Z,2.43
2022-12-03T04:59:38.137Z,2.41
2022-12-03T05:02:06.195Z,2.47
2022-12-03T05:04:33.263Z,2.47
2022-12-03T05:07:00.210Z,2.53
2022-12-03T05:09:27.079Z,2.62
2022-12-03T05:11:54.030Z,2.49
2022-12-03T05:14:22.034Z,2.53
2022-12-03T05:16:48.928Z,2.53
2022-12-03T05:19:15.822Z,2.43
2022-12-03T05:21:42.705Z,2.37
2022-12-03T05:24:09.549Z,2.37
2022-12-03T05:26:36.473Z,2.29
2022-12-03T05:29:03.800Z,2.34
2022-12-03T05:31:30.755Z,2.35
2022-12-03T05:33:57.712Z,2.51
2022-12-03T05:36:25.740Z,2.57
2022-12-03T05:38:52.706Z,2.67
2022-12-03T05:41:38.288Z,2.57
2022-12-03T05:44:05.172Z,2.67
2022-12-03T05:46:33.096Z,2.69
2022-12-03T05:49:00.068Z,2.65
2022-12-03T05:51:27.152Z,2.69
2022-12-03T05:53:53.972Z,2.73
2022-12-03T05:56:20.870Z,2.88
2022-12-03T05:58:47.719Z,2.94
2022-12-03T06:01:14.621Z,2.82
2022-12-03T06:03:41.573Z,2.90
2022-12-03T06:06:08.499Z,2.81
2022-12-03T06:08:35.350Z,2.99
2022-12-03T06:11:02.286Z,2.99
2022-12-03T06:13:29.120Z,3.06
2022-12-03T06:15:55.956Z,3.02
2022-12-03T06:18:22.810Z,2.98
2022-12-03T06:20:49.686Z,3.00
2022-12-03T06:23:16.622Z,3.20
2022-12-03T06:25:43.464Z,3.28
2022-12-03T06:28:10.370Z,3.22
2022-12-03T06:30:37.231Z,3.15
2022-12-03T06:33:04.170Z,3.09
2022-12-03T06:35:30.955Z,3.15
2022-12-03T06:37:58.041Z,3.18
2022-12-03T06:40:25.237Z,3.30
2022-12-03T06:42:52.391Z,3.08
2022-12-03T06:45:19.258Z,3.31
2022-12-03T06:47:46.111Z,3.24
2022-12-03T06:50:13.934Z,3.33
2022-12-03T06:52:40.824Z,3.23
2022-12-03T06:55:08.112Z,3.31
2022-12-03T06:57:34.992Z,3.33
2022-12-03T07:00:03.557Z,3.37
2022-12-03T07:02:30.583Z,3.40
2022-12-03T07:04:57.923Z,3.43
2022-12-03T07:07:25.060Z,3.46
2022-12-03T07:09:52.056Z,3.77
2022-12-03T07:12:19.036Z,3.91
2022-12-03T07:14:45.870Z,3.76
2022-12-03T07:17:12.715Z,3.70
2022-12-03T07:19:39.795Z,3.68
2022-12-03T07:22:06.771Z,3.63
2022-12-03T07:24:33.819Z,3.75
2022-12-03T07:27:00.725Z,3.83
2022-12-03T07:29:27.581Z,4.09
2022-12-03T07:31:54.565Z,4.10
2022-12-03T07:34:21.692Z,3.94
2022-12-03T07:36:48.530Z,3.93
2022-12-03T07:39:15.475Z,4.14
2022-12-03T07:41:42.395Z,4.18
2022-12-03T07:44:14.027Z,4.28
2022-12-03T07:46:41.607Z,4.63
2022-12-03T07:49:08.765Z,4.67
2022-12-03T07:51:35.558Z,4.67
2022-12-03T07:54:02.468Z,4.63
2022-12-03T07:56:29.377Z,4.94
2022-12-03T07:58:56.546Z,5.20
2022-12-03T08:01:23.515Z,5.14
2022-12-03T08:03:50.509Z,5.31
2022-12-03T08:06:17.363Z,5.16
2022-12-03T08:08:44.270Z,5.09
2022-12-03T08:11:14.321Z,5.10
2022-12-03T08:13:41.253Z,4.97
2022-12-03T08:16:21.127Z,4.80
2022-12-03T08:18:49.867Z,4.96
2022-12-03T08:21:19.516Z,4.95
2022-12-03T08:23:46.504Z,5.13
2022-12-03T08:26:22.689Z,5.20
2022-12-03T08:28:50.184Z,5.56
2022-12-03T08:31:28.020Z,5.70
2022-12-03T08:34:14.998Z,6.10
2022-12-03T08:36:41.970Z,6.03
2022-12-03T08:39:30.756Z,6.27
2022-12-03T08:42:24.671Z,5.97
2022-12-03T08:44:52.826Z,6.20
2022-12-03T08:47:21.983Z,6.08
2022-12-03T08:50:01.335Z,6.31
2022-12-03T08:52:33.331Z,6.08
2022-12-03T08:55:11.028Z,6.23
2022-12-03T08:57:37.913Z,6.53
2022-12-03T09:00:23.883Z,6.56
2022-12-03T09:02:55.614Z,6.80
2022-12-03T09:05:26.456Z,6.82
2022-12-03T09:07:53.486Z,6.55
2022-12-03T09:10:20.494Z,6.38
2022-12-03T09:12:47.444Z,6.82
2022-12-03T09:15:15.453Z,7.21
2022-12-03T09:17:42.333Z,7.26
2022-12-03T09:20:09.860Z,7.38
2022-12-03T09:22:36.813Z,7.15
2022-12-03T09:25:04.106Z,7.23
2022-12-03T09:27:31.114Z,7.27
2022-12-03T09:29:58.160Z,7.42
2022-12-03T09:32:25.376Z,6.94
2022-12-03T09:34:52.746Z,7.23
2022-12-03T09:37:22.425Z,7.11
2022-12-03T09:39:49.347Z,7.32
2022-12-03T09:42:16.503Z,7.39
2022-12-03T09:44:44.257Z,7.53
2022-12-03T09:47:11.364Z,7.51
2022-12-03T09:49:40.870Z,7.40
2022-12-03T09:52:08.286Z,7.79
2022-12-03T09:54:35.531Z,8.20
2022-12-03T09:57:04.350Z,8.78
2022-12-03T09:59:35.267Z,9.43
2022-12-03T10:02:02.803Z,9.62
2022-12-03T10:04:30.208Z,10.31
2022-12-03T10:06:59.068Z,10.74
2022-12-03T10:09:28.623Z,10.05
2022-12-03T10:11:59.993Z,10.22
2022-12-03T10:14:27.890Z,10.12
2022-12-03T10:16:55.424Z,10.09
2022-12-03T10:19:28.347Z,9.38
2022-12-03T10:21:55.876Z,8.97
2022-12-03T10:24:26.082Z,8.70
2022-12-03T10:26:58.191Z,8.39
2022-12-03T10:29:33.271Z,7.76
2022-12-03T10:32:02.625Z,7.90
2022-12-03T10:34:35.337Z,7.63
2022-12-03T10:37:22.748Z,8.10
2022-12-03T10:40:08.248Z,8.17
2022-12-03T10:42:37.950Z,8.46
2022-12-03T10:45:23.083Z,8.71
2022-12-03T10:48:06.583Z,8.65
2022-12-03T10:50:35.172Z,7.45
2022-12-03T10:53:02.382Z,7.63
2022-12-03T10:55:38.772Z,6.95
2022-12-03T10:58:05.932Z,7.31
2022-12-03T11:00:32.791Z,7.28
2022-12-03T11:02:59.674Z,7.22
2022-12-03T11:05:27.603Z,7.11
2022-12-03T11:07:55.020Z,7.56
2022-12-03T11:10:22.263Z,7.65
2022-12-03T11:13:31.467Z,7.16
2022-12-03T11:15:59.576Z,7.80
2022-12-03T11:18:38.955Z,7.99
2022-12-03T11:21:07.223Z,7.88
2022-12-03T11:23:46.476Z,7.63
2022-12-03T11:26:19.294Z,7.77
2022-12-03T11:28:46.531Z,7.43
2022-12-03T11:31:35.753Z,7.23
2022-12-03T11:34:29.420Z,7.25
2022-12-03T11:37:11.430Z,7.20
2022-12-03T11:39:56.894Z,7.19
2022-12-03T11:42:26.985Z,6.82
2022-12-03T11:45:05.720Z,6.65
2022-12-03T11:47:34.409Z,6.58
2022-12-03T11:50:01.655Z,6.46
2022-12-03T11:52:32.616Z,6.50
2022-12-03T11:55:18.100Z,6.48
2022-12-03T11:57:45.795Z,6.35
2022-12-03T12:00:18.496Z,5.90
2022-12-03T12:02:46.097Z,5.81
2022-12-03T12:05:33.453Z,5.81
2022-12-03T12:08:02.219Z,6.01
2022-12-03T12:10:43.043Z,6.17
2022-12-03T12:13:33.940Z,6.40
2022-12-03T12:16:06.046Z,6.19
2022-12-03T12:18:46.729Z,5.88
2022-12-03T12:21:38.437Z,6.08
2022-12-03T12:24:30.120Z,6.14
2022-12-03T12:27:01.856Z,5.88
2022-12-03T12:29:29.062Z,5.96
2022-12-03T12:32:13.109Z,5.93
2022-12-03T12:34:43.095Z,5.79
2022-12-03T12:37:21.327Z,5.70
2022-12-03T12:39:49.143Z,5.66
2022-12-03T12:42:53.259Z,5.66
2022-12-03T12:45:25.784Z,5.69
2022-12-03T12:48:10.279Z,5.53
2022-12-03T12:50:38.833Z,5.46
2022-12-03T12:53:12.508Z,5.41
2022-12-03T12:55:40.165Z,5.38
2022-12-03T12:58:19.075Z,5.24
2022-12-03T13:00:55.265Z,5.30
2022-12-03T13:03:25.651Z,5.08
2022-12-03T13:05:54.117Z,5.01
2022-12-03T13:08:25.739Z,4.88
2022-12-03T13:10:55.230Z,4.79
2022-12-03T13:13:29.886Z,4.65
2022-12-03T13:16:01.225Z,4.66
2022-12-03T13:18:33.643Z,4.76
2022-12-03T13:21:21.658Z,4.76
2022-12-03T13:23:52.187Z,4.83
2022-12-03T13:26:40.020Z,4.89
2022-12-03T13:29:18.491Z,5.04
2022-12-03T13:31:52.313Z,5.04
2022-12-03T13:34:22.450Z,5.03
2022-12-03T13:36:55.369Z,4.98
2022-12-03T13:39:35.185Z,4.89
2022-12-03T13:42:26.781Z,4.91
2022-12-03T13:44:53.917Z,4.84
2022-12-03T13:47:22.993Z,4.88
2022-12-03T13:49:56.003Z,4.90
2022-12-03T13:52:25.727Z,4.88
2022-12-03T13:54:55.590Z,4.76
2022-12-03T13:57:23.165Z,4.75
2022-12-03T13:59:50.233Z,4.55
2022-12-03T14:02:17.317Z,4.43
2022-12-03T14:04:44.246Z,4.39
2022-12-03T14:07:11.161Z,4.35
2022-12-03T14:09:37.962Z,4.32
2022-12-03T14:12:23.418Z,4.28
2022-12-03T14:14:50.199Z,4.32
2022-12-03T14:17:17.245Z,4.25
2022-12-03T14:19:44.790Z,4.26
2022-12-03T14:22:11.986Z,4.24
2022-12-03T14:24:42.543Z,4.16
2022-12-03T14:27:09.433Z,4.21
2022-12-03T14:29:36.341Z,4.15
2022-12-03T14:32:03.269Z,4.01
2022-12-03T14:34:30.652Z,3.99
2022-12-03T14:36:57.587Z,4.01
2022-12-03T14:39:25.376Z,4.00
2022-12-03T14:42:10.863Z,3.95
2022-12-03T14:44:37.683Z,3.97
2022-12-03T14:47:04.559Z,3.90
2022-12-03T14:49:31.690Z,3.86
2022-12-03T14:51:59.494Z,3.79
2022-12-03T14:54:29.299Z,3.73
2022-12-03T14:56:56.433Z,3.61
2022-12-03T14:59:27.593Z,3.62
2022-12-03T15:01:55.734Z,3.64
2022-12-03T15:04:22.847Z,3.61
2022-12-03T15:06:49.733Z,3.61
2022-12-03T15:09:16.937Z,3.53
2022-12-03T15:27:46.764Z,3.07
2022-12-03T15:30:13.766Z,3.23
2022-12-03T15:32:40.578Z,3.39
2022-12-03T15:35:08.031Z,3.48
2022-12-03T15:37:34.801Z,3.48
2022-12-03T15:40:01.928Z,3.55
2022-12-03T15:42:29.824Z,3.60
2022-12-03T15:44:56.659Z,3.61
2022-12-03T15:47:23.531Z,3.62
2022-12-03T15:49:50.383Z,3.71
2022-12-03T15:52:17.296Z,3.63
2022-12-03T15:54:44.356Z,3.60
2022-12-03T15:57:11.514Z,3.69
2022-12-03T15:59:38.962Z,3.79
2022-12-03T16:02:06.075Z,3.76
2022-12-03T16:04:33.090Z,3.82
2022-12-03T16:06:59.997Z,3.73
2022-12-03T16:09:27.869Z,3.84
2022-12-03T16:11:54.919Z,3.76
2022-12-03T16:14:21.742Z,3.88
2022-12-03T16:16:48.633Z,3.67
2022-12-03T16:19:15.472Z,3.67
2022-12-03T16:21:42.291Z,3.52
2022-12-03T16:24:09.279Z,3.54
2022-12-03T16:26:36.242Z,3.50
2022-12-03T16:29:03.180Z,3.50
2022-12-03T16:31:30.266Z,3.62
2022-12-03T16:33:57.198Z,3.52
2022-12-03T16:36:24.032Z,3.53
2022-12-03T16:38:50.907Z,3.69
2022-12-03T16:41:18.565Z,3.55
2022-12-03T16:43:48.438Z,3.63
2022-12-03T16:46:15.560Z,3.53
2022-12-03T16:48:43.098Z,3.57
2022-12-03T16:51:10.688Z,3.39
2022-12-03T16:53:38.234Z,3.46
2022-12-03T16:56:05.269Z,3.52
2022-12-03T16:58:32.173Z,3.53
2022-12-03T17:00:59.085Z,3.39
2022-12-03T17:03:32.076Z,3.33
2022-12-03T17:06:00.874Z,3.30
2022-12-03T17:08:27.986Z,3.28
2022-12-03T17:10:54.949Z,3.12
2022-12-03T17:13:23.322Z,3.10
2022-12-03T17:15:51.150Z,3.05
2022-12-03T17:18:18.097Z,2.96
2022-12-03T17:20:44.998Z,2.85
2022-12-03T17:23:12.723Z,2.85
2022-12-03T17:25:39.584Z,2.81
2022-12-03T17:28:06.443Z,2.66
2022-12-03T17:30:33.454Z,2.58
2022-12-03T17:33:01.296Z,2.59
2022-12-03T17:35:28.680Z,2.60
2022-12-03T17:37:55.614Z,2.52
2022-12-03T17:40:22.594Z,2.54
2022-12-03T17:42:49.561Z,2.45
2022-12-03T17:45:16.452Z,2.48
2022-12-03T17:47:43.288Z,2.46
2022-12-03T17:50:10.547Z,2.48
2022-12-03T17:52:37.454Z,2.65
2022-12-03T17:55:16.271Z,2.53
2022-12-03T17:57:44.885Z,2.52
2022-12-03T18:00:12.461Z,2.46
2022-12-03T18:02:39.431Z,2.49
2022-12-03T18:05:06.735Z,2.45
2022-12-03T18:07:34.074Z,2.45
2022-12-03T18:10:04.130Z,2.44
2022-12-03T18:12:34.250Z,2.45
2022-12-03T18:15:01.181Z,2.44
2022-12-03T18:17:28.000Z,2.47
2022-12-03T18:19:55.104Z,2.47
2022-12-03T18:22:22.086Z,2.37
2022-12-03T18:24:52.010Z,2.46
2022-12-03T18:27:21.326Z,2.46
2022-12-03T18:29:48.649Z,2.51
2022-12-03T18:32:28.682Z,2.49
2022-12-03T18:34:57.953Z,2.44
2022-12-03T18:37:27.944Z,2.53
2022-12-03T18:39:55.675Z,2.49
2022-12-03T18:42:23.847Z,2.47
2022-12-03T18:44:54.131Z,2.42
2022-12-03T18:47:24.134Z,2.29
2022-12-03T18:49:51.500Z,2.36
2022-12-03T18:52:21.794Z,2.33
2022-12-03T18:54:49.383Z,2.26
2022-12-03T18:57:17.385Z,2.33
2022-12-03T18:59:44.450Z,2.33
2022-12-03T19:02:38.381Z,2.35
2022-12-03T19:05:04.141Z,2.40
2022-12-03T19:07:31.087Z,2.43
2022-12-03T19:09:57.956Z,2.38
2022-12-03T19:12:24.886Z,2.40
2022-12-03T19:14:51.787Z,2.39
2022-12-03T19:17:18.694Z,2.34
2022-12-03T19:19:46.596Z,2.40
2022-12-03T19:22:13.534Z,2.44
2022-12-03T19:24:40.315Z,2.44
2022-12-03T19:27:07.230Z,2.39
2022-12-03T19:29:34.086Z,2.47
2022-12-03T19:32:01.127Z,2.47
2022-12-03T19:34:28.042Z,2.45
2022-12-03T19:36:54.889Z,2.42
2022-12-03T19:39:21.810Z,2.49
2022-12-03T19:41:48.762Z,2.54
2022-12-03T19:44:17.245Z,2.50
2022-12-03T19:46:44.627Z,2.45
2022-12-03T19:49:12.061Z,2.45
2022-12-03T19:51:38.971Z,2.41
2022-12-03T19:54:07.633Z,2.46
2022-12-03T19:56:35.328Z,2.47
2022-12-03T19:59:02.448Z,2.46
2022-12-03T20:01:32.201Z,2.50
2022-12-03T20:04:01.015Z,2.44
2022-12-03T20:06:30.389Z,2.43
2022-12-03T20:08:59.578Z,2.46
2022-12-03T20:11:29.516Z,2.47
2022-12-03T20:14:02.864Z,2.51
2022-12-03T20:16:30.420Z,2.46
2022-12-03T20:18:59.813Z,2.59
2022-12-03T20:21:28.615Z,2.60
2022-12-03T20:23:55.501Z,2.55
2022-12-03T20:26:23.242Z,2.49
2022-12-03T20:28:50.767Z,2.39
2022-12-03T20:31:20.617Z,2.55
2022-12-03T20:33:50.233Z,2.49
2022-12-03T20:36:19.188Z,2.37
2022-12-03T20:38:46.147Z,2.41
2022-12-03T20:41:15.977Z,2.33
2022-12-03T20:43:43.065Z,2.30
2022-12-03T20:46:15.520Z,2.33
2022-12-03T20:48:43.967Z,2.24
2022-12-03T20:51:14.133Z,2.13
2022-12-03T20:53:41.769Z,2.20
2022-12-03T20:56:09.434Z,2.05
2022-12-03T20:58:36.653Z,2.09
2022-12-03T21:01:16.206Z,2.06
2022-12-03T21:03:44.668Z,2.03
2022-12-03T21:06:12.790Z,2.11
2022-12-03T21:08:41.862Z,2.15
2022-12-03T21:11:15.398Z,2.24
2022-12-03T21:13:43.921Z,2.24
2022-12-03T21:16:18.366Z,2.12
2022-12-03T21:18:45.979Z,2.19
2022-12-03T21:21:15.015Z,2.19
2022-12-03T21:23:42.226Z,2.16
2022-12-03T21:26:17.122Z,2.14
2022-12-03T21:28:45.543Z,2.22
2022-12-03T21:31:15.111Z,2.21
2022-12-03T21:33:42.711Z,2.22
2022-12-03T21:36:10.363Z,2.15
2022-12-03T21:38:38.235Z,2.00
2022-12-03T21:41:05.766Z,1.99
2022-12-03T21:43:32.696Z,2.03
2022-12-03T21:46:00.327Z,1.94
2022-12-03T21:48:27.224Z,2.08
2022-12-03T21:51:06.716Z,2.15
2022-12-03T21:53:40.456Z,2.12
2022-12-03T21:56:16.135Z,2.05
2022-12-03T21:58:44.120Z,2.04
2022-12-03T22:01:23.272Z,2.08
2022-12-03T22:03:50.764Z,2.12
2022-12-03T22:06:18.382Z,2.10
2022-12-03T22:08:45.792Z,2.04
2022-12-03T22:11:21.849Z,2.10
2022-12-03T22:13:49.507Z,2.03
2022-12-03T22:16:20.274Z,2.03
2022-12-03T22:18:47.634Z,2.08
2022-12-03T22:21:17.361Z,2.10
2022-12-03T22:23:44.300Z,1.98
2022-12-03T22:26:13.217Z,1.92
2022-12-03T22:28:43.490Z,1.96
2022-12-03T22:31:14.053Z,1.89
2022-12-03T22:33:41.287Z,1.81
2022-12-03T22:36:18.014Z,1.87
2022-12-03T22:38:47.705Z,1.89
2022-12-03T22:41:15.233Z,1.91
2022-12-03T22:43:42.163Z,1.93
2022-12-03T22:46:12.987Z,1.95
2022-12-03T22:48:41.915Z,1.99
2022-12-03T22:51:19.093Z,1.92
2022-12-03T22:53:46.467Z,1.93
2022-12-03T22:56:13.564Z,1.92
2022-12-03T22:58:41.305Z,2.04
2022-12-03T23:01:08.310Z,1.99
2022-12-03T23:03:36.238Z,1.96
2022-12-03T23:06:10.088Z,1.96
2022-12-03T23:08:36.980Z,2.03
2022-12-03T23:11:04.746Z,2.05
2022-12-03T23:13:31.736Z,1.93
2022-12-03T23:15:58.564Z,2.03
2022-12-03T23:18:25.546Z,1.97
2022-12-03T23:20:54.064Z,1.94
2022-12-03T23:23:22.147Z,1.98
2022-12-03T23:25:59.418Z,2.04
2022-12-03T23:28:28.298Z,1.99
2022-12-03T23:30:55.814Z,2.06
2022-12-03T23:33:23.205Z,2.00
2022-12-03T23:35:50.084Z,2.03
2022-12-03T23:38:18.530Z,2.12
2022-12-03T23:40:48.538Z,2.05
2022-12-03T23:43:15.976Z,2.05
2022-12-03T23:45:42.836Z,1.98
2022-12-03T23:48:13.054Z,1.86
2022-12-03T23:50:41.387Z,1.83
2022-12-03T23:53:10.886Z,1.83
2022-12-03T23:55:40.950Z,1.69
2022-12-03T23:58:10.136Z,1.67
